Latest Observation

30 Stations

Daily Data | America/Los_Angeles
as of 9/4/26 10:31 PM PDT
Station Date Daily Max Temp 5ft (°F) Time of Max Temp Daily Min Temp 5ft (°F) Time of Min Temp Daily Rain (In) Month Precip (In) Season Precip (In) Wind Spd (mph) Daily Max Wind (mph) Time of Max Wind Dew Pt (°F) Daily Max RH (%) Daily Min RH (%) Daily Max Temp 30ft (°F) Daily Min Temp 30ft (°F) Max Inversion (°F) Max Inversion Time Min Inversion (°F) Min Inversion Time Daily Solar Rad (Cal/cm2) MinBV Day (V)
Shandon ETo (SLO-1) 9/3/26 84.3 1554 48.5 0532 0.00 0.00 0.05 3.8 18.2 1745 50.6 97 25 84.2 48.6 3.8 0912 -3.5 1316 519 12.4
Creston Rd (SLO-2) 9/3/26 84.7 1419 46.3 0535 0.00 0.00 0.02 2.6 16.8 1501 50.6 96 29 83.7 48.4 6.4 0137 -6.8 1453 558 12.3
NE Paso Robles (SLO-3) 9/3/26 87.6 1454 46.5 0635 0.00 0.00 0.01 3.2 18.5 1742 51.9 97 21 88.4 48.2 3.0 0346 -6.5 1354 550 12.3
Cross Canyon Rd (SLO-4) 9/3/26 86.9 1519 48.4 0544 0.00 0.00 0.00 3.1 16.8 1612 52.3 95 25 86.5 50.0 4.9 0458 -5.3 1314 559 12.4
Willow Creek (SLO-5) 9/3/26 79.9 1323 43.3 0641 0.00 0.00 0.00 2.3 14.5 1529 47.8 95 39 80.2 44.8 4.8 1945 -5.0 1527 560 12.4
Shell Creek Rd (SLO-6) 9/3/26 87.3 1451 43.2 0637 0.00 0.00 0.00 3.5 16.8 1939 48.7 95 26 87.7 44.4 6.4 0837 -5.9 1248 569 12.3
South Shandon (SLO-7) 9/3/26 86.5 1552 45.6 0630 0.00 0.00 0.02 2.9 17.8 1605 49.9 92 25 88.3 47.7 5.1 0239 -5.9 1228 554 12.4
South Creston (SLO-8) 9/3/26 85.6 1426 44.7 0559 0.00 0.00 0.00 2.8 15.8 1539 50.3 96 29 85.7 45.0 4.1 0104 -5.1 1507 542 12.3
Pozo Rd (SLO-9) 9/3/26 79.6 1259 38.0 0635 0.00 0.00 0.02 3.3 16.5 1520 47.1 92 40 79.0 39.0 4.7 2228 -5.5 1256 530 12.4
Experimental Station (SLO-10) 9/3/26 86.0 1430 50.7 0418 0.00 0.00 0.00 2.6 17.5 1751 51.2 92 23 86.1 51.1 2.3 1235 -5.2 1530 522 12.3
Vineyard Drive (SLO-11) 9/3/26 81.5 1320 41.0 0643 0.00 0.00 0.00 1.7 16.2 1608 47.1 96 34 82.9 43.7 5.1 0609 -5.6 1218 550 12.4
Von Dollen Road (SLO-12) 9/3/26 85.2 1540 48.2 0615 0.00 0.00 0.01 2.4 16.5 1703 49.4 84 29 86.9 49.8 4.0 2324 -6.2 1240 562 12.4
Templeton Gap West (SLO-13) 9/3/26 83.9 1336 41.5 0641 0.00 0.00 0.00 2.4 17.5 1624 50.4 98 33 83.9 44.9 8.4 0054 -7.2 1247 534 12.3
Orcutt Road (SLO-14) 9/3/26 76.0 1144 50.3 0406 0.00 0.00 0.01 3.2 17.5 1435 55.4 96 51 75.0 52.2 4.3 0406 -5.1 1233 552 12.4
Tiffany Ranch Rd (SLO-15) 9/3/26 79.3 1350 51.8 0409 0.00 0.00 0.00 0.0 0.7 0509 56.2 96 48 77.1 52.7 2.3 0350 -6.7 1333 566 12.4
Chimney Rock Rd (SLO-16) 9/3/26 82.9 1355 45.0 0646 0.00 0.00 0.02 1.8 14.2 1650 47.7 94 31 83.2 45.9 6.7 0750 -5.5 1408 576 12.1
Nipomo Mesa (SLO-17) 9/3/26 75.9 1400 46.4 0643 0.00 0.00 0.02 2.0 10.1 1429 54.3 98 54 74.3 49.5 6.5 0243 -7.3 0908 556 12.4
Morro Creek (SLO-18) 9/3/26 69.3 1336 49.2 0638 0.00 0.00 0.01 3.1 17.5 1536 57.6 98 69 68.3 50.4 4.1 0752 -4.7 1336 551 12.4
Paso Robles Airport ETo 9/3/26 82.8 1453 50.2 0513 0.00 0.01 0.04 3.2 15.8 1524 52.6 93 27 83.6 51.2 5.6 0911 -2.9 1111 567 12.4
West Shandon (SLO-20) 9/3/26 86.4 1527 48.7 0514 0.00 0.00 0.06 3.2 23.9 1551 50.8 92 21 86.9 49.5 4.1 0417 -5.6 1130 527 12.3
West San Miguel (SLO-21) 9/3/26 86.9 1510 48.8 0631 0.00 0.00 0.00 3.1 17.7 1426 50.6 97 21 - - - 0544 - 1513 541 12.3
Adelaida Road (SLO-22) 9/3/26 80.7 1350 44.8 0547 0.00 0.00 0.00 2.2 13.8 1833 47.4 95 30 80.5 48.6 5.7 0204 -3.1 1459 554 12.5
East Whitley Gardens (SLO-23) 9/3/26 84.4 1452 48.0 0445 0.00 0.00 0.01 2.6 16.6 1439 47.9 96 18 83.9 50.2 4.5 0234 -3.1 1537 559 12.4
Estrella Road (SLO-24) 9/3/26 85.3 1529 47.1 0641 0.00 0.00 0.01 3.0 17.2 1540 49.2 93 17 - - - 0101 - 0101 567 12.5
Camatta Creek (SLO-25) 9/3/26 84.8 1554 45.4 0625 0.00 0.00 0.02 2.4 18.3 1806 47.3 94 20 - - - - - - 545 12.4
East-Shandon (SLO-26) 9/3/26 85.7 1534 46.0 0531 0.00 0.00 0.02 3.6 17.7 1654 47.4 94 18 - - - - - - 574 12.5
Templeton East (SLO-27) 9/3/26 83.3 1348 46.2 0605 0.00 0.00 0.00 2.2 14.4 1511 49.2 94 28 - - - 0101 - 0101 568 12.5
Ground Squirrel Hollow (SLO-28) 9/3/26 83.0 1450 51.3 0527 0.00 0.00 0.00 3.5 17.7 1620 49.8 98 24 - - - 0101 - 0101 740 12.5
East Paso Robles (SLO-29) 9/3/26 83.4 1456 52.8 0456 0.00 0.00 0.01 4.9 22.2 1715 50.4 95 22 - - - 0101 - 0101 562 12.5
Max   87.6 - 52.8 - 0.00 0.01 0.06 4.9 23.9 - 57.6 98 69 88.4 52.7 8.4 - -2.9 - 740 12.5
Avg   - - - - - - - 2.8 - - 50.4 - - - - - - - - - -
Min   69.3 - 38.0 - 0.00 0.00 0.00 0.0 0.7 - 47.1 84 17 68.3 39.0 2.3 - -7.3 - 519 12.1